Time;durP1;ratioP1;P1;durP2;ratioP2;P2;SDS_P1;SDS_P2;PMS_P1;PMS_P2;Temp;Humidity;BMP_temperature;BMP_pressure;BME280_temperature;BME280_humidity;BME280_pressure;Samples;Min_cycle;Max_cycle;Signal;HPM_P1;HPM_P2
2024/01/03 00:01:33;;;;;;;0.45;0.35;;;10.30;99.90;;;;;;5028586;28;20213;-85
2024/01/03 00:03:59;;;;;;;0.88;0.50;;;10.30;99.90;;;;;;5026937;28;20189;-85
2024/01/03 00:06:35;;;;;;;0.70;0.43;;;10.30;99.90;;;;;;5026846;28;20202;-85
2024/01/03 00:09:02;;;;;;;4.60;0.60;;;10.30;99.90;;;;;;5020448;28;20193;-85
2024/01/03 00:11:30;;;;;;;0.43;0.40;;;10.30;99.90;;;;;;5026326;28;20700;-86
2024/01/03 00:14:07;;;;;;;0.52;0.43;;;10.20;99.90;;;;;;5022472;28;20201;-86
2024/01/03 00:16:35;;;;;;;0.40;0.30;;;10.20;99.90;;;;;;5018147;28;20189;-87
2024/01/03 00:19:02;;;;;;;1.15;0.60;;;10.10;99.90;;;;;;5016341;28;20185;-84
2024/01/03 00:21:28;;;;;;;0.40;0.40;;;10.00;99.90;;;;;;5024714;28;20220;-85
2024/01/03 00:24:03;;;;;;;1.80;0.70;;;9.80;99.90;;;;;;5035150;28;20181;-86
2024/01/03 00:26:32;;;;;;;0.52;0.30;;;9.80;99.90;;;;;;5028709;28;20276;-87
2024/01/03 00:28:58;;;;;;;0.40;0.30;;;9.80;99.90;;;;;;5030412;28;20193;-87
2024/01/03 00:31:37;;;;;;;0.40;0.30;;;9.70;99.90;;;;;;5032414;28;20272;-86
2024/01/03 00:34:09;;;;;;;1.73;0.50;;;9.70;99.90;;;;;;5029138;28;20193;-86
2024/01/03 00:36:35;;;;;;;0.60;0.50;;;9.70;99.90;;;;;;5040976;28;20227;-87
2024/01/03 00:39:01;;;;;;;2.50;0.60;;;9.60;99.90;;;;;;5031787;28;20197;-87
2024/01/03 00:41:26;;;;;;;0.40;0.30;;;9.70;99.90;;;;;;5026650;28;20556;-86
2024/01/03 00:43:52;;;;;;;2.13;0.50;;;9.50;99.90;;;;;;5029292;28;20300;-86
2024/01/03 00:46:17;;;;;;;1.00;0.73;;;9.70;99.90;;;;;;5031289;28;20170;-87
2024/01/03 00:48:43;;;;;;;0.57;0.57;;;9.70;99.90;;;;;;5037635;28;20177;-88
2024/01/03 00:51:09;;;;;;;0.40;0.30;;;9.70;99.90;;;;;;5041173;28;20220;-86
2024/01/03 00:53:34;;;;;;;0.50;0.40;;;9.80;99.90;;;;;;5031768;28;20173;-86
2024/01/03 00:56:00;;;;;;;4.37;0.50;;;9.70;99.90;;;;;;5028103;28;20174;-88
2024/01/03 00:58:26;;;;;;;0.50;0.30;;;9.60;99.90;;;;;;5024158;28;20177;-87
2024/01/03 01:00:53;;;;;;;0.63;0.40;;;9.70;99.90;;;;;;5025946;28;20213;-88
2024/01/03 01:03:19;;;;;;;1.05;0.50;;;9.80;99.90;;;;;;5028335;28;20182;-86
2024/01/03 01:05:45;;;;;;;0.77;0.37;;;9.90;99.90;;;;;;5029177;28;20269;-87
2024/01/03 01:08:11;;;;;;;2.13;0.30;;;10.00;99.90;;;;;;5028636;28;20182;-86
2024/01/03 01:10:37;;;;;;;0.40;0.40;;;10.10;99.90;;;;;;5035797;28;20455;-86
2024/01/03 01:13:02;;;;;;;1.47;1.37;;;10.10;99.90;;;;;;5029823;28;20860;-86
2024/01/03 01:15:29;;;;;;;1.23;0.60;;;10.20;99.90;;;;;;5028636;28;20223;-86
2024/01/03 01:17:55;;;;;;;1.35;0.52;;;10.30;99.90;;;;;;5028183;28;20170;-86
2024/01/03 01:20:20;;;;;;;1.37;0.80;;;10.20;99.90;;;;;;5028568;28;20205;-85
2024/01/03 01:22:46;;;;;;;0.90;0.50;;;10.30;99.90;;;;;;5032674;28;20223;-86
2024/01/03 01:25:12;;;;;;;0.70;0.40;;;10.30;99.90;;;;;;5028900;28;20181;-85
2024/01/03 01:27:37;;;;;;;0.50;0.40;;;10.40;99.90;;;;;;5029673;28;20174;-90
2024/01/03 01:30:03;;;;;;;0.47;0.30;;;10.50;99.90;;;;;;5023430;28;21254;-87
2024/01/03 01:32:29;;;;;;;0.83;0.83;;;10.50;99.90;;;;;;5027121;28;20293;-87
2024/01/03 01:34:54;;;;;;;0.60;0.30;;;10.40;99.90;;;;;;5042226;28;20439;-89
2024/01/03 01:37:20;;;;;;;0.43;0.33;;;10.40;99.90;;;;;;5024447;28;20182;-89
2024/01/03 01:39:46;;;;;;;2.30;0.70;;;10.30;99.90;;;;;;5030756;28;20236;-88
2024/01/03 01:42:11;;;;;;;0.40;0.30;;;10.10;99.90;;;;;;5028230;28;20243;-89
2024/01/03 01:44:37;;;;;;;1.03;0.50;;;10.20;99.90;;;;;;5034458;28;20787;-89
2024/01/03 01:47:05;;;;;;;3.60;0.60;;;10.20;99.90;;;;;;5031438;28;20197;-87
2024/01/03 01:49:32;;;;;;;1.05;0.45;;;10.30;99.90;;;;;;5030372;28;20195;-88
2024/01/03 01:51:59;;;;;;;0.50;0.30;;;10.30;99.90;;;;;;5031187;28;20213;-88
2024/01/03 01:54:25;;;;;;;0.40;0.30;;;;;;;;;;5026286;28;20185;-88
2024/01/03 01:56:51;;;;;;;0.60;0.45;;;10.30;99.90;;;;;;5013768;28;20204;-88
2024/01/03 01:59:19;;;;;;;1.50;0.60;;;10.20;99.90;;;;;;5026394;28;20186;-89
2024/01/03 02:01:45;;;;;;;0.70;0.70;;;10.20;99.90;;;;;;5026774;28;21150;-87
2024/01/03 02:04:11;;;;;;;0.40;0.40;;;10.20;99.90;;;;;;5021699;28;20277;-89
2024/01/03 02:06:36;;;;;;;0.77;0.47;;;10.20;99.90;;;;;;5040710;28;20174;-88
2024/01/03 02:09:03;;;;;;;2.10;2.00;;;10.20;99.90;;;;;;5029447;28;20205;-89
2024/01/03 02:11:29;;;;;;;0.40;0.30;;;;;;;;;;5030298;28;20198;-89
2024/01/03 02:13:54;;;;;;;0.87;0.70;;;10.00;99.90;;;;;;5026650;28;20220;-89
2024/01/03 02:16:20;;;;;;;0.30;0.30;;;10.00;99.90;;;;;;5023450;28;20451;-84
2024/01/03 02:18:47;;;;;;;14.23;1.50;;;10.00;99.90;;;;;;5015625;28;20190;-85
2024/01/03 02:21:15;;;;;;;2.50;0.50;;;10.00;99.90;;;;;;5022572;28;20697;-85
2024/01/03 02:23:41;;;;;;;0.50;0.50;;;10.00;99.90;;;;;;5021430;28;20745;-84
2024/01/03 02:26:06;;;;;;;0.67;0.40;;;9.90;99.90;;;;;;5023031;28;20209;-85
2024/01/03 02:28:32;;;;;;;2.70;1.13;;;10.00;99.90;;;;;;5016296;28;20445;-85
2024/01/03 02:30:57;;;;;;;0.40;0.30;;;10.00;99.90;;;;;;5017165;28;20209;-84
2024/01/03 02:33:23;;;;;;;2.50;0.40;;;10.10;99.90;;;;;;5020200;28;20198;-84
2024/01/03 02:35:48;;;;;;;0.40;0.30;;;10.10;99.90;;;;;;5017136;28;20628;-85
2024/01/03 02:38:14;;;;;;;0.40;0.30;;;10.20;99.90;;;;;;5024227;28;20843;-84
2024/01/03 02:40:39;;;;;;;0.60;0.30;;;10.20;99.90;;;;;;5017125;28;20308;-85
2024/01/03 02:43:05;;;;;;;0.80;0.80;;;10.20;99.90;;;;;;5022691;28;20214;-84
2024/01/03 02:45:30;;;;;;;2.93;0.77;;;10.20;99.90;;;;;;5018180;28;20186;-84
2024/01/03 02:47:56;;;;;;;0.37;0.27;;;10.20;99.90;;;;;;5019478;28;20188;-85
2024/01/03 02:50:21;;;;;;;0.60;0.37;;;10.10;99.90;;;;;;5018519;28;20206;-84
2024/01/03 02:52:47;;;;;;;0.87;0.60;;;10.10;99.90;;;;;;5017590;28;22259;-85
2024/01/03 02:55:13;;;;;;;0.63;0.50;;;10.20;99.90;;;;;;5018419;28;20754;-85
2024/01/03 02:57:38;;;;;;;0.33;0.30;;;10.20;99.90;;;;;;5019582;28;20202;-86
2024/01/03 03:00:05;;;;;;;1.33;0.30;;;10.10;99.90;;;;;;5018304;28;20612;-85
2024/01/03 03:02:31;;;;;;;3.42;0.40;;;10.20;99.90;;;;;;5017811;28;20210;-84
2024/01/03 03:04:56;;;;;;;1.80;0.50;;;10.10;99.90;;;;;;5021366;28;20280;-85
2024/01/03 03:07:22;;;;;;;0.40;0.40;;;10.10;99.90;;;;;;5022761;28;20193;-84
2024/01/03 03:09:47;;;;;;;0.40;0.30;;;10.10;99.90;;;;;;5025183;28;20273;-85
2024/01/03 03:12:13;;;;;;;0.37;0.30;;;10.10;99.90;;;;;;5023134;28;20185;-85
2024/01/03 03:14:38;;;;;;;0.40;0.30;;;10.10;99.90;;;;;;5022173;28;20191;-86
2024/01/03 03:17:04;;;;;;;3.07;1.03;;;10.20;99.90;;;;;;5021989;28;20548;-86
2024/01/03 03:19:29;;;;;;;0.60;0.50;;;10.10;99.90;;;;;;5020289;28;20197;-87
2024/01/03 03:21:55;;;;;;;2.40;0.60;;;10.10;99.90;;;;;;5021736;28;20213;-86
2024/01/03 03:24:20;;;;;;;1.13;0.30;;;10.10;99.90;;;;;;5021831;28;20459;-85
2024/01/03 03:26:47;;;;;;;0.43;0.30;;;10.00;99.90;;;;;;5018892;28;20333;-85
2024/01/03 03:29:13;;;;;;;0.40;0.30;;;10.10;99.90;;;;;;5019119;28;20196;-86
2024/01/03 03:31:41;;;;;;;2.60;0.30;;;10.20;99.90;;;;;;5015940;28;21370;-87
2024/01/03 03:34:07;;;;;;;0.40;0.30;;;10.20;99.90;;;;;;5017547;28;20213;-88
2024/01/03 03:36:32;;;;;;;0.40;0.40;;;10.20;99.90;;;;;;5017593;28;20333;-87
2024/01/03 03:38:58;;;;;;;0.40;0.30;;;10.30;99.90;;;;;;5021729;28;20523;-88
2024/01/03 03:41:23;;;;;;;0.60;0.30;;;10.20;99.90;;;;;;5019849;28;20221;-88
2024/01/03 03:43:49;;;;;;;1.53;0.67;;;10.10;99.90;;;;;;5023392;28;20565;-87
2024/01/03 03:46:17;;;;;;;0.57;0.33;;;10.20;99.90;;;;;;5021404;28;20235;-88
2024/01/03 03:48:42;;;;;;;0.65;0.35;;;10.20;99.90;;;;;;5020899;28;20180;-88
2024/01/03 03:51:08;;;;;;;0.40;0.30;;;10.10;99.90;;;;;;5021940;28;20240;-88
2024/01/03 03:53:34;;;;;;;0.60;0.60;;;;;;;;;;5020323;28;20224;-88
2024/01/03 03:55:59;;;;;;;4.83;1.30;;;10.20;99.90;;;;;;5021985;28;20284;-89
2024/01/03 03:58:25;;;;;;;2.57;0.70;;;10.30;99.90;;;;;;5022998;28;20509;-89
2024/01/03 04:00:50;;;;;;;0.70;0.30;;;10.20;99.90;;;;;;5022573;28;20206;-88
2024/01/03 04:03:17;;;;;;;1.43;0.73;;;10.20;99.90;;;;;;5023692;28;20188;-89
2024/01/03 04:05:42;;;;;;;0.70;0.52;;;10.10;99.90;;;;;;5024066;28;20188;-87
2024/01/03 04:08:08;;;;;;;1.07;1.07;;;10.10;99.90;;;;;;5021507;28;20170;-88
2024/01/03 04:10:33;;;;;;;0.40;0.40;;;10.30;99.90;;;;;;5035937;28;20201;-87
2024/01/03 04:13:00;;;;;;;2.70;0.70;;;;;;;;;;5028358;28;20448;-88
2024/01/03 04:15:25;;;;;;;0.65;0.55;;;10.10;99.90;;;;;;5021506;28;20285;-88
2024/01/03 04:17:51;;;;;;;6.53;0.50;;;10.10;99.90;;;;;;5023225;28;20272;-87
2024/01/03 04:20:16;;;;;;;5.03;0.60;;;10.10;99.90;;;;;;5020112;28;20279;-87
2024/01/03 04:22:44;;;;;;;3.47;0.90;;;10.10;99.90;;;;;;5021455;28;20202;-87
2024/01/03 04:25:10;;;;;;;5.18;0.63;;;10.20;99.90;;;;;;5018823;28;20255;-87
2024/01/03 04:27:36;;;;;;;1.90;1.33;;;10.20;99.90;;;;;;5015077;28;20329;-87
2024/01/03 04:30:03;;;;;;;0.40;0.30;;;10.10;99.90;;;;;;5022391;28;20765;-87
2024/01/03 04:32:29;;;;;;;0.40;0.40;;;10.20;99.90;;;;;;5022616;28;20176;-87
2024/01/03 04:34:54;;;;;;;3.50;0.50;;;10.20;99.90;;;;;;5023780;28;20179;-86
2024/01/03 04:37:20;;;;;;;0.70;0.60;;;10.20;99.90;;;;;;5024197;28;20425;-87
2024/01/03 04:39:46;;;;;;;1.83;0.47;;;10.20;99.90;;;;;;5020744;28;20221;-87
2024/01/03 04:42:11;;;;;;;1.80;0.70;;;10.20;99.90;;;;;;5020854;28;20213;-87
2024/01/03 04:44:37;;;;;;;0.40;0.33;;;10.20;99.90;;;;;;5021114;28;20668;-86
2024/01/03 04:47:03;;;;;;;4.05;0.70;;;10.00;99.90;;;;;;5018934;28;20176;-86
2024/01/03 04:49:29;;;;;;;0.40;0.30;;;10.10;99.90;;;;;;5020823;28;20787;-87
2024/01/03 04:51:55;;;;;;;1.90;0.40;;;10.10;99.90;;;;;;5019357;28;20715;-87
2024/01/03 04:54:20;;;;;;;1.80;0.57;;;10.10;99.90;;;;;;5017014;28;20189;-86
2024/01/03 04:56:46;;;;;;;1.70;0.30;;;10.00;99.90;;;;;;5018654;28;20439;-87
2024/01/03 04:59:12;;;;;;;1.13;0.63;;;10.10;99.90;;;;;;5017058;28;20256;-87
2024/01/03 05:01:39;;;;;;;4.63;1.00;;;;;;;;;;5019119;28;20292;-86
2024/01/03 05:04:05;;;;;;;0.45;0.40;;;10.20;99.90;;;;;;5020536;28;20169;-87
2024/01/03 05:06:31;;;;;;;0.50;0.40;;;;;;;;;;5019011;28;20182;-86
2024/01/03 05:08:56;;;;;;;0.98;0.50;;;10.10;99.90;;;;;;5014431;28;20193;-87
2024/01/03 05:11:22;;;;;;;7.90;0.80;;;9.90;99.90;;;;;;5017354;28;20206;-87
2024/01/03 05:13:49;;;;;;;0.50;0.40;;;9.90;99.90;;;;;;5014923;28;20182;-86
2024/01/03 05:16:15;;;;;;;0.40;0.30;;;9.80;99.90;;;;;;5011281;28;20568;-85
2024/01/03 05:18:40;;;;;;;4.10;0.57;;;9.90;99.90;;;;;;5021593;28;20201;-87
2024/01/03 05:21:06;;;;;;;1.10;0.97;;;9.80;99.90;;;;;;5018465;28;20251;-86
2024/01/03 05:23:32;;;;;;;14.35;0.45;;;9.70;99.90;;;;;;5017784;28;21754;-87
2024/01/03 05:25:57;;;;;;;0.80;0.60;;;9.60;99.90;;;;;;5018619;28;20309;-86
2024/01/03 05:28:23;;;;;;;13.60;0.63;;;9.60;99.90;;;;;;5014862;28;20220;-86
2024/01/03 05:30:49;;;;;;;2.83;0.87;;;9.70;99.90;;;;;;5015919;28;20523;-86
2024/01/03 05:33:15;;;;;;;1.10;0.68;;;9.80;99.90;;;;;;5013627;28;20648;-86
2024/01/03 05:35:41;;;;;;;0.50;0.50;;;10.00;99.90;;;;;;5018539;28;20208;-87
2024/01/03 05:38:07;;;;;;;0.60;0.30;;;9.80;99.90;;;;;;5016983;28;20432;-85
2024/01/03 05:40:32;;;;;;;0.70;0.40;;;9.90;99.90;;;;;;5011004;28;20198;-85
2024/01/03 05:42:57;;;;;;;1.03;0.60;;;10.00;99.90;;;;;;5014813;28;20480;-84
2024/01/03 05:45:23;;;;;;;0.43;0.37;;;10.00;99.90;;;;;;5009354;28;20834;-85
2024/01/03 05:47:48;;;;;;;0.47;0.30;;;10.00;99.90;;;;;;5015621;28;20190;-85
2024/01/03 05:50:14;;;;;;;3.83;1.17;;;10.00;99.90;;;;;;5016172;28;20213;-85
2024/01/03 05:52:40;;;;;;;0.40;0.30;;;10.00;99.90;;;;;;5013642;28;20204;-84
2024/01/03 05:55:09;;;;;;;0.50;0.40;;;10.10;99.90;;;;;;5015094;28;20602;-85
2024/01/03 05:57:34;;;;;;;0.40;0.30;;;10.10;99.90;;;;;;5009201;28;20605;-85
2024/01/03 06:00:01;;;;;;;1.40;0.45;;;10.20;99.90;;;;;;5017434;28;20438;-87
2024/01/03 06:02:26;;;;;;;3.13;0.40;;;10.20;99.90;;;;;;5030820;28;20233;-86
2024/01/03 06:04:51;;;;;;;0.77;0.40;;;10.20;99.90;;;;;;5019206;28;20217;-86
2024/01/03 06:07:17;;;;;;;0.90;0.83;;;10.20;99.90;;;;;;5019725;28;20176;-86
2024/01/03 06:09:43;;;;;;;0.37;0.20;;;10.30;99.90;;;;;;5022529;28;20228;-86
2024/01/03 06:12:09;;;;;;;0.95;0.30;;;10.30;99.90;;;;;;5021461;28;20351;-87
2024/01/03 06:14:35;;;;;;;3.60;1.17;;;10.30;99.90;;;;;;5020657;28;20266;-87
2024/01/03 06:17:00;;;;;;;1.37;0.40;;;10.30;99.90;;;;;;5019474;28;20189;-86
2024/01/03 06:19:26;;;;;;;2.40;0.70;;;10.30;99.90;;;;;;5022383;28;20644;-87
2024/01/03 06:21:51;;;;;;;3.10;0.60;;;10.20;99.90;;;;;;5021634;28;20213;-86
2024/01/03 06:24:17;;;;;;;2.93;0.73;;;10.10;99.90;;;;;;5022293;28;20197;-86
2024/01/03 06:26:43;;;;;;;2.50;0.73;;;10.20;99.90;;;;;;5020391;28;20276;-86
2024/01/03 06:29:08;;;;;;;0.57;0.37;;;10.20;99.90;;;;;;5016035;28;21077;-86
2024/01/03 06:31:34;;;;;;;4.33;0.30;;;10.20;99.90;;;;;;5018197;28;20213;-86
2024/01/03 06:33:59;;;;;;;0.47;0.47;;;10.20;99.90;;;;;;5018548;28;21022;-86
2024/01/03 06:36:25;;;;;;;6.03;1.80;;;10.20;99.90;;;;;;5015958;28;20174;-88
2024/01/03 06:38:51;;;;;;;2.10;0.30;;;10.20;99.90;;;;;;5019836;28;20182;-87
2024/01/03 06:41:17;;;;;;;0.87;0.50;;;10.20;99.90;;;;;;5016157;28;20211;-86
2024/01/03 06:43:45;;;;;;;0.57;0.57;;;10.30;99.90;;;;;;5013316;28;21650;-87
2024/01/03 06:46:11;;;;;;;0.60;0.50;;;10.30;99.90;;;;;;5029812;28;20196;-87
2024/01/03 06:48:37;;;;;;;2.93;0.40;;;10.30;99.90;;;;;;5015304;28;20186;-87
2024/01/03 06:51:03;;;;;;;0.47;0.38;;;10.30;99.90;;;;;;5027864;28;20220;-88
2024/01/03 06:53:30;;;;;;;3.47;0.70;;;10.30;99.90;;;;;;5014784;28;20228;-89
2024/01/03 06:55:56;;;;;;;0.88;0.52;;;10.20;99.90;;;;;;5021403;28;20676;-89
2024/01/03 06:58:22;;;;;;;2.60;0.90;;;10.10;99.90;;;;;;5031859;28;20473;-87
2024/01/03 07:00:48;;;;;;;2.80;0.65;;;10.10;99.90;;;;;;5020786;28;20731;-86
2024/01/03 07:03:14;;;;;;;3.17;0.97;;;10.20;99.90;;;;;;5034440;28;20178;-86
2024/01/03 07:05:40;;;;;;;2.58;0.95;;;10.20;99.90;;;;;;5034179;28;21124;-86
2024/01/03 07:08:07;;;;;;;0.80;0.50;;;10.20;99.90;;;;;;5035494;28;20194;-86
2024/01/03 07:10:33;;;;;;;0.60;0.50;;;10.30;99.90;;;;;;5033931;28;20540;-86
2024/01/03 07:12:59;;;;;;;1.83;0.53;;;10.30;99.90;;;;;;5034016;28;20205;-86
2024/01/03 07:15:28;;;;;;;1.20;0.60;;;10.30;99.90;;;;;;5033640;28;20472;-86
2024/01/03 07:17:56;;;;;;;1.98;0.52;;;10.40;99.90;;;;;;5032189;28;20704;-86
2024/01/03 07:20:25;;;;;;;1.58;1.25;;;10.40;99.90;;;;;;5033228;28;20205;-86
2024/01/03 07:22:51;;;;;;;1.98;0.70;;;10.40;99.90;;;;;;5037212;28;20228;-86
2024/01/03 07:25:17;;;;;;;0.77;0.50;;;10.40;99.90;;;;;;5036526;28;20174;-86
2024/01/03 07:27:43;;;;;;;0.50;0.40;;;10.40;99.90;;;;;;5034858;28;20471;-84
2024/01/03 07:30:09;;;;;;;0.90;0.60;;;10.50;99.90;;;;;;5031090;28;20210;-84
2024/01/03 07:32:35;;;;;;;1.00;0.57;;;10.50;99.90;;;;;;5037686;28;20173;-85
2024/01/03 07:35:00;;;;;;;1.83;0.60;;;10.60;99.90;;;;;;5030203;28;20489;-84
2024/01/03 07:37:27;;;;;;;1.23;0.40;;;10.60;99.90;;;;;;5035948;28;20423;-84
2024/01/03 07:39:53;;;;;;;0.40;0.20;;;10.50;99.90;;;;;;5030910;28;20197;-85
2024/01/03 07:42:18;;;;;;;1.20;0.60;;;10.40;99.90;;;;;;5027729;28;20197;-85
2024/01/03 07:44:44;;;;;;;0.40;0.40;;;10.40;99.90;;;;;;5025934;28;20193;-85
2024/01/03 07:47:11;;;;;;;7.10;0.60;;;10.30;99.90;;;;;;5020688;28;20181;-84
2024/01/03 07:49:37;;;;;;;7.57;1.48;;;10.10;99.90;;;;;;5023889;28;20185;-86
2024/01/03 07:52:04;;;;;;;15.27;1.15;;;10.10;99.90;;;;;;5023628;28;20660;-88
2024/01/03 07:54:30;;;;;;;3.65;0.68;;;10.00;99.90;;;;;;5026867;28;20193;-86
2024/01/03 07:57:01;;;;;;;3.33;0.50;;;10.00;99.90;;;;;;5026465;28;20213;-85
2024/01/03 07:59:27;;;;;;;5.40;0.73;;;10.10;99.90;;;;;;5037191;28;20424;-87
2024/01/03 08:01:53;;;;;;;1.80;0.47;;;10.20;99.90;;;;;;5036939;28;20196;-86
2024/01/03 08:04:18;;;;;;;6.60;1.93;;;10.10;99.90;;;;;;5037858;28;20166;-87
2024/01/03 08:06:44;;;;;;;9.83;0.97;;;10.20;99.90;;;;;;5037917;28;20166;-86
2024/01/03 08:09:10;;;;;;;1.43;0.40;;;10.30;99.90;;;;;;5030751;28;20185;-85
2024/01/03 08:11:36;;;;;;;0.50;0.50;;;10.40;99.90;;;;;;5031089;28;20213;-86
2024/01/03 08:14:02;;;;;;;1.57;0.60;;;10.50;99.90;;;;;;5028942;28;20213;-85
2024/01/03 08:16:27;;;;;;;0.60;0.50;;;10.60;99.90;;;;;;5037160;28;20412;-86
2024/01/03 08:18:54;;;;;;;0.40;0.40;;;10.60;99.90;;;;;;5024931;28;20181;-86
2024/01/03 08:21:20;;;;;;;0.50;0.40;;;10.80;99.90;;;;;;5036748;28;20761;-86
2024/01/03 08:23:45;;;;;;;0.93;0.40;;;10.90;99.90;;;;;;5036978;28;20268;-87
2024/01/03 08:26:12;;;;;;;1.90;1.40;;;11.00;99.90;;;;;;5039668;28;20864;-86
2024/01/03 08:28:40;;;;;;;0.75;0.50;;;11.10;99.90;;;;;;5037852;28;20268;-86
2024/01/03 08:31:13;;;;;;;2.38;1.27;;;11.10;99.90;;;;;;5027692;28;20205;-85
2024/01/03 08:33:40;;;;;;;0.63;0.43;;;11.20;99.90;;;;;;5035143;28;20569;-85
2024/01/03 08:36:11;;;;;;;0.40;0.35;;;11.30;99.90;;;;;;5037282;28;20169;-88
2024/01/03 08:38:37;;;;;;;5.85;0.65;;;11.40;99.90;;;;;;5044610;28;20208;-87
2024/01/03 08:41:02;;;;;;;0.50;0.40;;;11.60;99.90;;;;;;5044812;28;20197;-87
2024/01/03 08:43:28;;;;;;;0.77;0.40;;;11.60;99.90;;;;;;5046089;28;20169;-86
2024/01/03 08:45:53;;;;;;;3.33;1.47;;;11.60;99.90;;;;;;5040322;28;20189;-87
2024/01/03 08:48:19;;;;;;;1.37;0.40;;;11.40;99.90;;;;;;5024482;28;20177;-86
2024/01/03 08:50:44;;;;;;;1.70;0.63;;;11.50;99.90;;;;;;5039727;28;20200;-89
2024/01/03 08:53:11;;;;;;;2.97;0.50;;;11.60;99.90;;;;;;5023923;28;20162;-86
2024/01/03 08:55:36;;;;;;;0.55;0.40;;;11.30;99.90;;;;;;5027903;28;20208;-85
2024/01/03 08:58:02;;;;;;;0.80;0.40;;;11.20;99.90;;;;;;5031974;28;20197;-86
2024/01/03 09:00:27;;;;;;;1.03;0.90;;;11.00;99.90;;;;;;5033898;28;20205;-85
2024/01/03 09:02:59;;;;;;;0.50;0.50;;;10.90;99.90;;;;;;5038563;28;20198;-86
2024/01/03 09:05:25;;;;;;;0.40;0.30;;;10.90;99.90;;;;;;5038693;28;20184;-86
2024/01/03 09:07:51;;;;;;;1.00;0.47;;;10.80;99.90;;;;;;5038985;28;20771;-86
2024/01/03 09:10:16;;;;;;;4.97;0.90;;;10.90;99.90;;;;;;5041567;28;20179;-86
2024/01/03 09:12:42;;;;;;;1.23;0.40;;;10.90;99.90;;;;;;5031352;28;20596;-85
2024/01/03 09:15:07;;;;;;;0.50;0.50;;;10.90;99.90;;;;;;5031968;28;20181;-86
2024/01/03 09:17:33;;;;;;;3.50;1.57;;;11.00;99.90;;;;;;5037865;28;20629;-86
2024/01/03 09:19:58;;;;;;;0.40;0.30;;;11.20;99.90;;;;;;5033101;28;20182;-85
2024/01/03 09:22:24;;;;;;;0.53;0.50;;;11.30;99.90;;;;;;5020297;28;20194;-86
2024/01/03 09:24:50;;;;;;;0.50;0.33;;;11.50;99.90;;;;;;5020331;28;20166;-87
2024/01/03 09:27:15;;;;;;;1.33;0.87;;;11.50;99.90;;;;;;5049501;28;20166;-86
2024/01/03 09:29:42;;;;;;;1.17;0.40;;;11.50;99.90;;;;;;5037017;28;20244;-87
2024/01/03 09:32:08;;;;;;;2.25;0.70;;;11.50;99.90;;;;;;5036235;28;20588;-86
2024/01/03 09:34:39;;;;;;;2.15;0.80;;;11.50;99.90;;;;;;5038108;28;20180;-86
2024/01/03 09:37:11;;;;;;;0.40;0.30;;;11.40;99.90;;;;;;5037250;28;20193;-85
2024/01/03 09:39:37;;;;;;;2.97;0.80;;;11.40;99.90;;;;;;5036422;28;20576;-86
2024/01/03 09:42:03;;;;;;;1.90;0.77;;;11.40;99.90;;;;;;5040676;28;20194;-86
2024/01/03 09:44:29;;;;;;;0.40;0.30;;;11.50;99.90;;;;;;5034966;28;20200;-86
2024/01/03 09:46:56;;;;;;;4.13;0.45;;;11.50;99.90;;;;;;5043649;28;20237;-85
2024/01/03 09:49:22;;;;;;;0.40;0.30;;;;;;;;;;5042648;28;20304;-86
2024/01/03 09:51:48;;;;;;;0.40;0.20;;;11.50;99.90;;;;;;5041372;28;21009;-85
2024/01/03 09:54:13;;;;;;;0.50;0.40;;;11.50;99.90;;;;;;5024302;28;20413;-86
2024/01/03 09:56:40;;;;;;;0.57;0.30;;;11.50;99.90;;;;;;5025476;28;20170;-86
2024/01/03 09:59:06;;;;;;;1.30;0.60;;;11.80;99.90;;;;;;5042061;28;20173;-85
2024/01/03 10:01:32;;;;;;;0.82;0.40;;;11.70;99.90;;;;;;5042213;28;20254;-86
2024/01/03 10:03:58;;;;;;;0.40;0.30;;;11.80;99.90;;;;;;5039795;28;20245;-85
2024/01/03 10:06:24;;;;;;;1.75;0.80;;;11.80;99.90;;;;;;5043113;28;20508;-85
2024/01/03 10:09:00;;;;;;;2.83;0.30;;;11.60;99.90;;;;;;5039635;28;20186;-86
2024/01/03 10:11:28;;;;;;;0.40;0.40;;;11.70;99.90;;;;;;5039050;28;20771;-86
2024/01/03 10:13:56;;;;;;;0.50;0.30;;;11.60;99.90;;;;;;5041314;28;20655;-86
2024/01/03 10:16:23;;;;;;;0.45;0.30;;;11.50;99.90;;;;;;5042113;28;20180;-86
2024/01/03 10:19:11;;;;;;;0.40;0.30;;;11.30;99.90;;;;;;5032082;28;20174;-86
2024/01/03 10:21:59;;;;;;;2.35;0.70;;;11.10;99.90;;;;;;5038225;28;20193;-86
2024/01/03 10:24:24;;;;;;;0.40;0.20;;;10.90;99.90;;;;;;5039191;28;20162;-86
2024/01/03 10:26:50;;;;;;;0.40;0.30;;;10.80;99.90;;;;;;5038200;28;20184;-85
2024/01/03 10:29:20;;;;;;;4.10;0.50;;;10.60;99.90;;;;;;5037866;28;20174;-86
2024/01/03 10:31:47;;;;;;;0.40;0.30;;;10.30;99.90;;;;;;5038353;28;20507;-86
2024/01/03 10:34:17;;;;;;;0.30;0.20;;;10.30;99.90;;;;;;5040704;28;20173;-86
2024/01/03 10:36:46;;;;;;;0.40;0.30;;;10.30;99.90;;;;;;5040461;28;20177;-85
2024/01/03 10:39:15;;;;;;;0.35;0.20;;;10.30;99.90;;;;;;5038716;28;20204;-86
2024/01/03 10:41:45;;;;;;;0.93;0.40;;;10.20;99.90;;;;;;5040229;28;20205;-85
2024/01/03 10:44:13;;;;;;;0.50;0.30;;;10.10;99.90;;;;;;5037967;28;20182;-85
2024/01/03 10:46:41;;;;;;;4.35;0.47;;;10.10;99.90;;;;;;5040322;28;20849;-86
2024/01/03 10:49:07;;;;;;;4.00;0.55;;;10.20;99.90;;;;;;5038649;28;20174;-86
2024/01/03 10:51:39;;;;;;;0.60;0.50;;;10.20;99.90;;;;;;5038879;28;20193;-86
2024/01/03 10:54:07;;;;;;;0.50;0.40;;;10.40;99.90;;;;;;5035851;28;20174;-85
2024/01/03 10:56:34;;;;;;;6.78;0.68;;;10.50;99.90;;;;;;5038777;28;20166;-86
2024/01/03 10:59:00;;;;;;;0.68;0.50;;;;;;;;;;5036386;28;20220;-86
2024/01/03 11:01:31;;;;;;;0.77;0.50;;;10.70;99.90;;;;;;5037736;28;20292;-86
2024/01/03 11:04:06;;;;;;;1.25;0.40;;;10.70;99.90;;;;;;5038121;28;20201;-86
2024/01/03 11:07:00;;;;;;;0.40;0.30;;;10.60;99.90;;;;;;5036576;28;20260;-86
2024/01/03 11:09:26;;;;;;;0.35;0.28;;;10.60;99.90;;;;;;5036134;28;20214;-84
2024/01/03 11:12:15;;;;;;;0.40;0.30;;;10.70;99.90;;;;;;5037282;28;20692;-86
2024/01/03 11:14:41;;;;;;;0.60;0.40;;;11.00;99.90;;;;;;5036335;28;20178;-84
2024/01/03 11:17:10;;;;;;;0.40;0.30;;;11.00;99.90;;;;;;5027595;28;20186;-85
2024/01/03 11:19:37;;;;;;;0.40;0.30;;;11.10;99.90;;;;;;5038223;28;20174;-84
2024/01/03 11:22:03;;;;;;;1.10;0.40;;;11.00;99.90;;;;;;5028076;28;20259;-84
2024/01/03 11:24:29;;;;;;;1.55;0.30;;;11.20;99.90;;;;;;5035422;28;20174;-84
2024/01/03 11:26:55;;;;;;;1.90;0.40;;;11.00;99.90;;;;;;5030260;28;20275;-84
2024/01/03 11:29:38;;;;;;;1.60;0.50;;;11.00;99.90;;;;;;5031468;28;20166;-84
2024/01/03 11:32:13;;;;;;;0.40;0.30;;;11.10;99.90;;;;;;5021995;28;20206;-83
2024/01/03 11:34:44;;;;;;;3.35;0.80;;;11.20;99.90;;;;;;5028140;28;20180;-85
2024/01/03 11:37:18;;;;;;;0.40;0.30;;;11.30;99.90;;;;;;5033243;28;20201;-85
2024/01/03 11:39:46;;;;;;;0.80;0.43;;;11.50;99.90;;;;;;5032145;28;20201;-85
2024/01/03 11:42:19;;;;;;;4.57;1.25;;;11.50;99.90;;;;;;5033101;28;20209;-84
2024/01/03 11:44:45;;;;;;;1.35;0.40;;;;;;;;;;5027565;28;20442;-84
2024/01/03 11:47:11;;;;;;;1.30;0.57;;;11.50;99.90;;;;;;5029221;28;20224;-83
2024/01/03 11:49:37;;;;;;;1.42;0.60;;;11.60;99.90;;;;;;5030662;28;20182;-84
2024/01/03 11:52:03;;;;;;;4.13;0.70;;;11.80;99.90;;;;;;5032459;28;20204;-83
2024/01/03 11:54:31;;;;;;;1.00;0.50;;;11.80;99.90;;;;;;5032853;28;20217;-83
2024/01/03 11:56:58;;;;;;;0.70;0.40;;;11.60;99.90;;;;;;5029803;28;20175;-85
2024/01/03 11:59:24;;;;;;;0.50;0.30;;;11.60;99.90;;;;;;5025432;28;20725;-84
2024/01/03 12:02:00;;;;;;;0.93;0.45;;;11.60;99.90;;;;;;5020642;28;20232;-84
2024/01/03 12:04:26;;;;;;;0.60;0.52;;;11.70;99.90;;;;;;5024545;28;20178;-85
2024/01/03 12:06:59;;;;;;;1.58;0.45;;;11.60;99.90;;;;;;5030918;28;20188;-83
2024/01/03 12:09:31;;;;;;;0.52;0.40;;;11.50;99.90;;;;;;5033271;28;20182;-85
2024/01/03 12:11:57;;;;;;;4.20;0.75;;;11.60;99.90;;;;;;5032685;28;20212;-85
2024/01/03 12:14:23;;;;;;;1.65;0.45;;;11.70;99.90;;;;;;5035642;28;20238;-85
2024/01/03 12:16:50;;;;;;;1.60;0.53;;;11.70;99.90;;;;;;5032390;28;20642;-85
2024/01/03 12:19:22;;;;;;;0.57;0.40;;;11.70;99.90;;;;;;5036019;28;20169;-85
2024/01/03 12:21:55;;;;;;;3.33;1.02;;;11.80;99.90;;;;;;5030293;28;20200;-84
2024/01/03 12:24:21;;;;;;;2.35;0.68;;;11.90;99.90;;;;;;5027013;28;20171;-85
2024/01/03 12:26:50;;;;;;;6.00;0.90;;;11.80;99.90;;;;;;5031304;28;20195;-87
2024/01/03 12:29:15;;;;;;;1.58;0.85;;;11.70;99.90;;;;;;5036748;28;20257;-84
2024/01/03 12:31:41;;;;;;;0.77;0.40;;;11.70;99.90;;;;;;5016372;28;20224;-84
2024/01/03 12:34:08;;;;;;;0.57;0.40;;;11.70;99.90;;;;;;5032041;28;20188;-85
2024/01/03 12:36:34;;;;;;;0.52;0.40;;;11.50;99.90;;;;;;5033918;28;20201;-84
2024/01/03 12:39:00;;;;;;;0.40;0.30;;;11.30;99.90;;;;;;5034995;28;20565;-85
2024/01/03 12:41:25;;;;;;;0.40;0.40;;;10.90;99.90;;;;;;5037033;28;20197;-84
2024/01/03 12:43:51;;;;;;;2.50;0.40;;;10.70;99.90;;;;;;5036790;28;20423;-85
2024/01/03 12:46:18;;;;;;;0.50;0.30;;;10.60;99.90;;;;;;5035011;28;20184;-85
2024/01/03 12:48:44;;;;;;;0.30;0.30;;;10.50;99.90;;;;;;5049185;28;20184;-84